Lobo

Go HERE for most recent data if this page is not up to date.

Jump to table bottom
Date/Time Temp deg F RH % 24 Hr Snow (in) Snow Depth (in) H2O (in)
05/26 22:00 35.1 85 "NAN" 41.0 0.00
05/26 21:00 34.5 75 "NAN" 41.0 0.00
05/26 20:00 36.4 92 "NAN" 40.8 0.00
05/26 19:00 34.7 79 "NAN" 40.9 0.03
05/26 18:00 36.3 87 "NAN" 40.8 0.01
05/26 17:00 39.3 93 "NAN" 40.4 0.00
05/26 16:00 39.8 57 "NAN" 40.6 0.00
05/26 15:00 35.6 80 "NAN" 41.4 0.01
05/26 14:00 44.9 56 "NAN" 40.6 0.00
05/26 13:00 44.2 42 "NAN" 41.3 0.00
05/26 12:00 43.6 47 "NAN" 41.7 0.00
05/26 11:00 41.2 65 "NAN" 42.3 0.00
05/26 10:00 37.0 78 "NAN" 42.5 0.00
05/26 09:00 33.8 89 "NAN" 42.7 0.00
05/26 08:00 32.4 97 "NAN" 42.6 0.00
05/26 07:00 31.5 100 "NAN" 42.6 0.00
05/26 06:00 31.4 99 "NAN" 42.5 0.02
05/26 05:00 32.1 99 "NAN" 42.5 0.00
05/26 04:00 33.0 95 "NAN" 42.7 0.00
05/26 03:00 32.5 93 "NAN" 42.8 0.00
05/26 02:00 33.1 96 "NAN" 42.7 0.00
05/26 01:00 33.8 92 "NAN" 42.7 0.00
05/26 00:00 33.9 92 "NAN" 42.7 0.00
05/25 23:00 34.8 86 "NAN" 42.6 0.00
05/25 22:00 34.4 85 "NAN" 42.7 0.00
05/25 21:00 34.7 83 "NAN" 42.6 0.00
05/25 20:00 35.5 83 "NAN" 42.7 0.00
05/25 19:00 36.3 81 "NAN" 42.8 0.00
05/25 18:00 37.8 75 "NAN" 42.5 0.00
05/25 17:00 40.1 70 "NAN" 42.5 0.00
05/25 16:00 42.2 53 "NAN" 42.6 0.00
05/25 15:00 41.1 56 "NAN" 42.9 0.00
05/25 14:00 40.2 53 "NAN" 43.0 0.00
05/25 13:00 36.5 71 "NAN" 43.2 0.00
05/25 12:00 35.9 81 "NAN" 43.0 0.00
05/25 11:00 35.2 81 "NAN" 43.1 0.00
05/25 10:00 33.3 91 "NAN" 42.7 0.00
05/25 09:00 32.4 88 "NAN" 43.1 0.00
05/25 08:00 31.1 96 "NAN" 43.1 0.00
05/25 07:00 30.5 96 "NAN" 43.2 0.00
05/25 06:00 30.5 97 "NAN" 43.1 0.00
05/25 05:00 30.3 95 "NAN" 43.2 0.00
05/25 04:00 30.1 94 "NAN" 43.2 0.00
05/25 03:00 30.1 98 "NAN" 43.2 0.00
05/25 02:00 30.2 95 "NAN" 43.3 0.00
05/25 01:00 30.3 98 "NAN" 43.1 0.00
05/25 00:00 31.3 94 "NAN" 43.1 0.00
.